Time;durP1;ratioP1;P1;durP2;ratioP2;P2;SDS_P1;SDS_P2;PMS_P1;PMS_P2;Temp;Humidity;BMP_temperature;BMP_pressure;BME280_temperature;BME280_humidity;BME280_pressure;Samples;Min_cycle;Max_cycle;Signal;HPM_P1;HPM_P2
2023/10/27 00:02:05;;;;;;;15.65;8.70;;;15.50;84.90;;;;;;4900252;29;20035;-71
2023/10/27 00:04:31;;;;;;;17.02;9.30;;;15.50;84.80;;;;;;4900174;29;20039;-71
2023/10/27 00:07:00;;;;;;;16.02;9.35;;;15.50;84.90;;;;;;4900425;29;20024;-71
2023/10/27 00:09:26;;;;;;;16.23;9.50;;;15.50;85.20;;;;;;4900186;29;20028;-71
2023/10/27 00:11:52;;;;;;;17.08;10.45;;;15.50;85.30;;;;;;4900348;29;20037;-72
2023/10/27 00:14:18;;;;;;;14.55;9.07;;;15.50;85.50;;;;;;4900146;29;20052;-72
2023/10/27 00:16:44;;;;;;;15.43;9.98;;;15.40;85.40;;;;;;4901213;29;20024;-71
2023/10/27 00:19:10;;;;;;;17.75;9.52;;;15.40;85.40;;;;;;4918757;29;20024;-72
2023/10/27 00:21:35;;;;;;;15.52;8.95;;;15.40;85.40;;;;;;4918786;29;20036;-71
2023/10/27 00:24:02;;;;;;;15.82;9.48;;;15.40;85.20;;;;;;4904407;29;20044;-71
2023/10/27 00:26:27;;;;;;;14.38;8.45;;;15.40;85.50;;;;;;4918657;29;20075;-72
2023/10/27 00:28:53;;;;;;;14.13;8.00;;;15.40;85.30;;;;;;4904382;29;20032;-72
2023/10/27 00:31:28;;;;;;;14.65;8.40;;;15.40;85.10;;;;;;4904256;29;20064;-72
2023/10/27 00:33:54;;;;;;;15.30;9.07;;;15.40;85.10;;;;;;4904245;29;20036;-71
2023/10/27 00:36:20;;;;;;;14.15;8.70;;;15.40;85.20;;;;;;4903630;29;20028;-72
2023/10/27 00:38:48;;;;;;;13.82;9.25;;;15.40;85.20;;;;;;4903631;29;20451;-71
2023/10/27 00:41:14;;;;;;;14.65;8.45;;;15.40;85.20;;;;;;4903881;29;20040;-71
2023/10/27 00:43:40;;;;;;;15.18;9.38;;;15.50;85.20;;;;;;4903590;29;20076;-71
2023/10/27 00:46:09;;;;;;;14.07;8.07;;;15.40;85.20;;;;;;4903579;29;20395;-72
2023/10/27 00:48:36;;;;;;;13.63;8.65;;;15.50;85.10;;;;;;4904037;29;20039;-72
2023/10/27 00:51:11;;;;;;;12.40;7.70;;;15.50;85.10;;;;;;4903660;29;20060;-71
2023/10/27 00:53:38;;;;;;;13.32;9.07;;;15.50;85.10;;;;;;4903922;29;20024;-71
2023/10/27 00:56:05;;;;;;;13.55;8.40;;;15.50;85.10;;;;;;4903329;29;20021;-71
2023/10/27 00:58:31;;;;;;;11.98;7.72;;;15.50;84.90;;;;;;4903085;29;20072;-71
2023/10/27 01:01:00;;;;;;;11.50;7.13;;;15.50;84.90;;;;;;4903536;29;20037;-72
2023/10/27 01:03:27;;;;;;;11.45;7.68;;;15.50;84.90;;;;;;4903144;29;20040;-71
2023/10/27 01:05:53;;;;;;;10.88;7.20;;;15.50;84.80;;;;;;4903180;29;20096;-71
2023/10/27 01:08:19;;;;;;;11.00;6.70;;;15.50;84.90;;;;;;4903560;29;20438;-71
2023/10/27 01:10:45;;;;;;;10.13;6.00;;;15.50;84.90;;;;;;4917711;29;20035;-71
2023/10/27 01:13:11;;;;;;;10.20;6.50;;;15.40;84.90;;;;;;4903028;29;20025;-72
2023/10/27 01:15:37;;;;;;;10.88;6.60;;;15.40;84.90;;;;;;4902980;29;20033;-72
2023/10/27 01:18:03;;;;;;;11.27;7.00;;;15.40;84.90;;;;;;4903450;29;20473;-73
2023/10/27 01:20:29;;;;;;;10.93;6.85;;;15.40;84.90;;;;;;4902900;29;20029;-72
2023/10/27 01:22:55;;;;;;;11.82;7.13;;;15.40;85.00;;;;;;4903389;29;20036;-71
2023/10/27 01:25:22;;;;;;;9.35;5.90;;;15.40;85.10;;;;;;4903345;29;20029;-71
2023/10/27 01:27:48;;;;;;;10.77;6.38;;;15.40;85.10;;;;;;4902664;29;20474;-71
2023/10/27 01:30:14;;;;;;;10.25;7.03;;;15.30;85.00;;;;;;4902942;29;20111;-72
2023/10/27 01:32:40;;;;;;;11.50;6.75;;;15.40;85.10;;;;;;4902739;29;20025;-72
2023/10/27 01:35:07;;;;;;;10.60;6.65;;;15.30;85.00;;;;;;4902618;29;20032;-72
2023/10/27 01:37:33;;;;;;;12.35;6.65;;;15.30;85.20;;;;;;4902513;29;20032;-72
2023/10/27 01:39:59;;;;;;;11.13;6.32;;;15.30;85.20;;;;;;4903290;29;20403;-71
2023/10/27 01:42:26;;;;;;;9.63;6.35;;;15.30;85.30;;;;;;4902802;29;20462;-71
2023/10/27 01:44:53;;;;;;;9.88;6.55;;;15.30;85.20;;;;;;4902462;29;20054;-72
2023/10/27 01:47:19;;;;;;;8.73;5.93;;;15.30;85.50;;;;;;4902607;29;20100;-71
2023/10/27 01:49:45;;;;;;;9.23;5.70;;;15.20;85.40;;;;;;4901337;29;20028;-71
2023/10/27 01:52:11;;;;;;;8.00;5.30;;;15.20;85.60;;;;;;4902837;29;20032;-71
2023/10/27 01:54:37;;;;;;;8.48;5.40;;;15.20;85.50;;;;;;4902289;29;20058;-71
2023/10/27 01:57:03;;;;;;;7.60;5.00;;;15.20;85.80;;;;;;4901987;29;20084;-71
2023/10/27 01:59:29;;;;;;;7.68;5.10;;;15.20;85.90;;;;;;4902721;29;20119;-72
2023/10/27 02:01:55;;;;;;;6.90;4.70;;;15.20;85.80;;;;;;4902438;29;20100;-71
2023/10/27 02:04:22;;;;;;;6.57;4.35;;;15.20;85.80;;;;;;4902124;29;20047;-72
2023/10/27 02:06:48;;;;;;;6.35;4.18;;;15.10;85.70;;;;;;4902241;29;20062;-72
2023/10/27 02:09:14;;;;;;;9.38;4.97;;;15.10;85.70;;;;;;4902584;29;20033;-71
2023/10/27 02:11:40;;;;;;;6.93;4.75;;;15.10;85.70;;;;;;4901903;29;20044;-71
2023/10/27 02:14:06;;;;;;;7.20;4.88;;;15.10;85.80;;;;;;4902484;29;20024;-72
2023/10/27 02:16:32;;;;;;;7.70;4.80;;;15.10;85.70;;;;;;4902094;29;20035;-71
2023/10/27 02:18:58;;;;;;;6.72;4.38;;;15.10;86.00;;;;;;4901859;29;20365;-71
2023/10/27 02:21:24;;;;;;;6.38;4.40;;;15.10;86.50;;;;;;4917383;29;20032;-72
2023/10/27 02:23:50;;;;;;;6.55;4.40;;;15.10;86.30;;;;;;4901752;29;20043;-72
2023/10/27 02:26:16;;;;;;;5.22;4.00;;;15.10;86.10;;;;;;4901655;29;20024;-72
2023/10/27 02:28:42;;;;;;;6.47;4.32;;;15.10;86.10;;;;;;4901672;29;20450;-72
2023/10/27 02:31:08;;;;;;;6.15;4.40;;;15.10;86.10;;;;;;4901805;29;20024;-71
2023/10/27 02:33:35;;;;;;;6.93;4.65;;;15.10;85.80;;;;;;4901582;29;20032;-71
2023/10/27 02:36:01;;;;;;;8.55;5.10;;;15.10;86.10;;;;;;4901808;29;20096;-71
2023/10/27 02:38:27;;;;;;;6.65;4.53;;;15.00;86.30;;;;;;4901648;29;20124;-71
2023/10/27 02:40:53;;;;;;;5.75;4.03;;;15.00;86.20;;;;;;4900980;29;20029;-72
2023/10/27 02:43:19;;;;;;;7.68;4.07;;;15.00;86.20;;;;;;4901942;29;20037;-71
2023/10/27 02:45:45;;;;;;;7.35;4.43;;;15.00;86.30;;;;;;4901653;29;20028;-71
2023/10/27 02:48:14;;;;;;;4.78;3.78;;;15.00;86.80;;;;;;4901316;29;20029;-72
2023/10/27 02:50:40;;;;;;;6.20;3.92;;;15.00;86.70;;;;;;4901218;29;20036;-71
2023/10/27 02:53:06;;;;;;;4.88;3.60;;;15.10;86.80;;;;;;4901245;29;20115;-72
2023/10/27 02:55:34;;;;;;;5.03;3.30;;;15.10;86.50;;;;;;4901174;29;20073;-72
2023/10/27 02:58:01;;;;;;;4.82;3.22;;;15.20;86.30;;;;;;4900952;29;20100;-72
2023/10/27 03:00:27;;;;;;;5.78;3.22;;;15.20;86.20;;;;;;4901375;29;20033;-72
2023/10/27 03:02:53;;;;;;;4.28;3.20;;;15.20;86.20;;;;;;4901068;29;20366;-71
2023/10/27 03:05:19;;;;;;;4.07;3.50;;;15.20;86.20;;;;;;4901014;29;20033;-71
2023/10/27 03:07:45;;;;;;;3.85;3.00;;;15.20;86.10;;;;;;4900923;29;20040;-72
2023/10/27 03:10:11;;;;;;;5.05;3.58;;;15.20;86.00;;;;;;4900842;29;20036;-72
2023/10/27 03:12:37;;;;;;;6.22;3.72;;;15.20;85.90;;;;;;4915970;29;20024;-72
2023/10/27 03:15:03;;;;;;;6.25;3.80;;;15.30;86.00;;;;;;4900873;29;20029;-71
2023/10/27 03:17:30;;;;;;;4.88;3.20;;;15.30;85.80;;;;;;4900703;29;20384;-72
2023/10/27 03:19:57;;;;;;;5.25;3.67;;;15.20;85.90;;;;;;4900813;29;20351;-71
2023/10/27 03:22:23;;;;;;;6.15;3.60;;;15.30;85.90;;;;;;4900990;29;20076;-72
2023/10/27 03:24:49;;;;;;;5.38;3.10;;;15.30;85.80;;;;;;4900693;29;20035;-72
2023/10/27 03:27:15;;;;;;;4.28;3.40;;;15.30;85.80;;;;;;4900646;29;20068;-72
2023/10/27 03:29:41;;;;;;;4.10;3.30;;;15.30;85.70;;;;;;4900574;29;20029;-72
2023/10/27 03:32:08;;;;;;;5.25;3.20;;;15.30;85.70;;;;;;4900550;29;20028;-72
2023/10/27 03:34:34;;;;;;;5.25;3.33;;;15.30;85.60;;;;;;4900485;29;20076;-71
2023/10/27 03:37:00;;;;;;;4.75;3.40;;;15.30;85.60;;;;;;4900803;29;20024;-72
2023/10/27 03:39:26;;;;;;;4.70;3.30;;;15.30;85.60;;;;;;4901043;29;20031;-72
2023/10/27 03:41:52;;;;;;;4.05;3.05;;;15.40;85.60;;;;;;4900470;29;20096;-72
2023/10/27 03:44:18;;;;;;;5.10;3.33;;;15.40;85.50;;;;;;4900931;29;20044;-72
2023/10/27 03:46:44;;;;;;;6.38;4.20;;;15.40;85.60;;;;;;4900626;29;20446;-71
2023/10/27 03:49:11;;;;;;;5.22;3.70;;;15.40;85.70;;;;;;4900406;29;20033;-71
2023/10/27 03:51:37;;;;;;;7.07;4.20;;;15.30;85.60;;;;;;4899755;29;20033;-72
2023/10/27 03:54:03;;;;;;;6.45;4.22;;;15.40;85.60;;;;;;4900258;29;20063;-72
2023/10/27 03:56:31;;;;;;;7.30;4.43;;;15.30;85.70;;;;;;4900033;29;20056;-70
2023/10/27 03:58:57;;;;;;;6.22;3.88;;;15.30;85.60;;;;;;4900292;29;20112;-73
2023/10/27 04:01:23;;;;;;;6.53;4.32;;;15.30;85.60;;;;;;4900819;29;20106;-72
2023/10/27 04:03:49;;;;;;;5.85;3.83;;;15.30;85.60;;;;;;4900545;29;20076;-72
2023/10/27 04:06:15;;;;;;;5.78;3.95;;;15.30;85.60;;;;;;4900161;29;20480;-72
2023/10/27 04:08:42;;;;;;;6.72;4.10;;;15.20;85.70;;;;;;4900740;29;20092;-72
2023/10/27 04:11:07;;;;;;;8.52;5.72;;;15.30;85.70;;;;;;4900384;29;20331;-72
2023/10/27 04:13:34;;;;;;;7.72;5.25;;;15.20;85.80;;;;;;4900405;29;20033;-72
2023/10/27 04:16:00;;;;;;;6.57;4.32;;;15.20;86.10;;;;;;4900431;29;20048;-71
2023/10/27 04:18:26;;;;;;;5.22;4.13;;;15.20;86.00;;;;;;4900092;29;20083;-72
2023/10/27 04:20:52;;;;;;;7.88;5.00;;;15.10;85.90;;;;;;4900072;29;20104;-72
2023/10/27 04:23:18;;;;;;;7.25;4.93;;;15.20;85.90;;;;;;4900076;29;20358;-72
2023/10/27 04:25:44;;;;;;;7.50;4.53;;;15.20;86.10;;;;;;4900022;29;20029;-72
2023/10/27 04:28:10;;;;;;;9.25;5.10;;;15.10;86.00;;;;;;4900042;29;20035;-71
2023/10/27 04:33:04;;;;;;;9.38;5.60;;;15.10;86.00;;;;;;4900542;29;20112;-71
2023/10/27 04:35:30;;;;;;;8.32;5.47;;;15.20;85.80;;;;;;4900206;29;20029;-73
2023/10/27 04:37:58;;;;;;;8.02;5.40;;;15.10;85.70;;;;;;4899918;29;20469;-71
2023/10/27 04:40:25;;;;;;;7.70;5.28;;;15.20;85.80;;;;;;4900469;29;20020;-72
2023/10/27 04:42:51;;;;;;;9.20;6.20;;;15.10;85.70;;;;;;4914684;29;20371;-71
2023/10/27 04:45:17;;;;;;;9.80;6.75;;;15.20;85.70;;;;;;4914661;29;20081;-71
2023/10/27 04:47:44;;;;;;;9.23;6.05;;;15.20;85.70;;;;;;4899782;29;20040;-72
2023/10/27 04:50:10;;;;;;;9.13;6.22;;;15.10;85.60;;;;;;4899729;29;20033;-72
2023/10/27 04:52:35;;;;;;;9.57;5.75;;;15.20;85.60;;;;;;4914631;29;20029;-72
2023/10/27 04:55:01;;;;;;;7.32;5.20;;;15.20;85.70;;;;;;4900071;29;20029;-73
2023/10/27 04:57:29;;;;;;;6.03;4.30;;;15.20;85.60;;;;;;4899843;29;20056;-72
2023/10/27 04:59:56;;;;;;;6.45;4.38;;;15.20;85.60;;;;;;4898822;29;20025;-72
2023/10/27 05:02:22;;;;;;;5.72;4.00;;;15.20;85.60;;;;;;4900411;29;20036;-72
2023/10/27 05:04:48;;;;;;;6.93;4.22;;;15.30;85.60;;;;;;4903244;29;20358;-72
2023/10/27 05:07:14;;;;;;;6.82;4.22;;;15.20;85.60;;;;;;4903133;29;20035;-72
2023/10/27 05:09:40;;;;;;;7.40;4.35;;;15.30;85.60;;;;;;4903415;29;20021;-72
2023/10/27 05:12:06;;;;;;;6.10;3.90;;;15.30;85.50;;;;;;4903586;29;20056;-72
2023/10/27 05:14:34;;;;;;;8.57;5.28;;;15.30;85.80;;;;;;4903567;29;20025;-73
2023/10/27 05:17:00;;;;;;;8.73;5.22;;;15.30;86.00;;;;;;4903162;29;20107;-72
2023/10/27 05:19:27;;;;;;;7.32;4.53;;;15.30;86.20;;;;;;4902983;29;20064;-72
2023/10/27 05:21:53;;;;;;;10.57;6.32;;;15.40;87.00;;;;;;4902899;29;20462;-73
2023/10/27 05:24:19;;;;;;;10.40;6.28;;;15.50;86.60;;;;;;4902845;29;20047;-72
2023/10/27 05:26:45;;;;;;;9.93;6.03;;;15.50;85.80;;;;;;4902752;29;20028;-71
2023/10/27 05:29:11;;;;;;;8.05;5.00;;;15.50;85.80;;;;;;4902933;29;20028;-72
2023/10/27 05:31:39;;;;;;;7.85;5.30;;;15.40;85.60;;;;;;4902623;29;20044;-72
2023/10/27 05:34:05;;;;;;;8.13;4.57;;;15.50;85.60;;;;;;4901700;29;20037;-72
2023/10/27 05:36:31;;;;;;;9.13;4.90;;;15.40;85.50;;;;;;4902556;29;20486;-72
2023/10/27 05:38:57;;;;;;;7.00;4.40;;;15.40;85.50;;;;;;4902604;29;20029;-72
2023/10/27 05:41:23;;;;;;;9.45;5.35;;;15.40;85.50;;;;;;4902564;29;20153;-72
2023/10/27 05:43:50;;;;;;;8.80;5.38;;;15.40;85.50;;;;;;4917299;29;20447;-72
2023/10/27 05:46:18;;;;;;;9.85;5.65;;;15.40;85.50;;;;;;4902345;29;20103;-72
2023/10/27 05:48:44;;;;;;;8.68;5.13;;;15.40;85.50;;;;;;4902361;29;20041;-72
2023/10/27 05:51:10;;;;;;;8.63;5.53;;;15.40;85.50;;;;;;4901278;29;20025;-72
2023/10/27 05:53:36;;;;;;;9.07;5.75;;;15.40;85.70;;;;;;4902417;29;20040;-72
2023/10/27 05:56:02;;;;;;;8.85;5.30;;;15.40;85.50;;;;;;4902613;29;20104;-71
2023/10/27 05:58:32;;;;;;;8.20;5.28;;;15.40;85.50;;;;;;4902002;29;20053;-72
2023/10/27 06:01:01;;;;;;;10.27;6.00;;;15.40;85.40;;;;;;4903326;29;20072;-71
2023/10/27 06:03:27;;;;;;;8.52;5.63;;;15.40;85.40;;;;;;4902460;29;20096;-71
2023/10/27 06:05:53;;;;;;;8.15;5.10;;;15.40;85.40;;;;;;4902190;29;20033;-71
2023/10/27 06:08:19;;;;;;;8.32;4.75;;;15.40;85.40;;;;;;4901978;29;20041;-72
2023/10/27 06:10:45;;;;;;;8.13;4.95;;;15.40;85.40;;;;;;4902224;29;20035;-72
2023/10/27 06:13:13;;;;;;;7.65;4.90;;;15.40;85.40;;;;;;4902524;29;20028;-71
2023/10/27 06:15:41;;;;;;;8.52;5.03;;;15.40;85.30;;;;;;4901470;29;20032;-72
2023/10/27 06:18:07;;;;;;;7.32;4.95;;;15.40;85.30;;;;;;4917220;29;20029;-72
2023/10/27 06:20:33;;;;;;;8.10;5.10;;;15.40;85.40;;;;;;4902147;29;20080;-72
2023/10/27 06:22:59;;;;;;;8.57;4.70;;;15.40;85.40;;;;;;5179874;23;20107;-71
2023/10/27 06:25:25;;;;;;;8.32;4.95;;;15.40;85.40;;;;;;4920644;29;20032;-72
2023/10/27 06:27:52;;;;;;;9.48;5.45;;;15.40;85.30;;;;;;4935436;29;20062;-72
2023/10/27 06:30:20;;;;;;;9.95;5.57;;;15.40;85.30;;;;;;4921064;29;20452;-73
2023/10/27 06:32:47;;;;;;;9.52;5.88;;;15.40;85.40;;;;;;4920433;29;20039;-72
2023/10/27 06:35:14;;;;;;;9.95;5.47;;;15.40;85.40;;;;;;4919656;29;20028;-71
2023/10/27 06:37:40;;;;;;;9.77;5.85;;;15.40;85.40;;;;;;4920704;29;20393;-72
2023/10/27 06:40:06;;;;;;;10.20;5.90;;;15.40;85.40;;;;;;4920954;29;20505;-71
2023/10/27 06:42:33;;;;;;;8.98;5.57;;;15.40;85.40;;;;;;4919350;29;20060;-71
2023/10/27 06:45:00;;;;;;;10.82;5.80;;;15.40;85.40;;;;;;4920864;29;20075;-71
2023/10/27 06:47:27;;;;;;;10.27;5.78;;;15.40;85.40;;;;;;4920822;29;20103;-71
2023/10/27 06:49:52;;;;;;;9.48;5.78;;;15.50;85.40;;;;;;4920167;29;20032;-73
2023/10/27 06:52:24;;;;;;;9.30;6.13;;;15.50;85.40;;;;;;4920056;29;20039;-74
2023/10/27 06:54:52;;;;;;;8.77;6.00;;;15.50;85.40;;;;;;4920660;29;20132;-71
2023/10/27 06:57:21;;;;;;;10.02;6.30;;;15.50;85.40;;;;;;4920107;29;20124;-74
2023/10/27 06:59:47;;;;;;;10.60;5.57;;;15.50;85.40;;;;;;4920014;29;20477;-73
2023/10/27 07:02:17;;;;;;;9.35;5.65;;;15.50;85.40;;;;;;4919927;29;20039;-73
2023/10/27 07:04:43;;;;;;;15.27;7.97;;;15.60;85.30;;;;;;4919929;29;20529;-74
2023/10/27 07:07:09;;;;;;;8.77;5.30;;;15.50;85.40;;;;;;4919839;29;20032;-72
2023/10/27 07:09:36;;;;;;;8.05;5.00;;;15.60;85.30;;;;;;4920179;29;20028;-72
2023/10/27 07:12:03;;;;;;;9.80;5.88;;;15.60;85.40;;;;;;4919741;29;20056;-73
2023/10/27 07:14:30;;;;;;;8.98;5.55;;;15.60;85.30;;;;;;4919712;29;20366;-73
2023/10/27 07:17:02;;;;;;;8.52;5.47;;;15.70;85.30;;;;;;4920264;29;20028;-72
2023/10/27 07:19:28;;;;;;;7.95;4.85;;;15.70;85.20;;;;;;4919631;29;20361;-73
2023/10/27 07:21:54;;;;;;;6.85;4.65;;;15.70;85.20;;;;;;4919397;29;20075;-73
2023/10/27 07:24:25;;;;;;;8.10;4.75;;;15.70;85.20;;;;;;4920226;29;20394;-73
2023/10/27 07:26:54;;;;;;;8.18;4.70;;;15.70;85.20;;;;;;4919472;29;20103;-73
2023/10/27 07:29:20;;;;;;;8.85;5.30;;;15.70;85.20;;;;;;4919503;29;20107;-73
2023/10/27 07:31:46;;;;;;;9.35;5.32;;;15.80;85.30;;;;;;5211834;23;20135;-74
2023/10/27 07:34:14;;;;;;;11.52;6.88;;;15.80;85.30;;;;;;4919527;29;20035;-72
2023/10/27 07:36:42;;;;;;;8.77;5.55;;;15.80;85.20;;;;;;4919429;29;20083;-74
2023/10/27 07:41:44;;;;;;;9.30;6.03;;;15.90;85.20;;;;;;5043226;23;20500;-72
2023/10/27 07:44:10;;;;;;;9.30;5.57;;;15.90;85.10;;;;;;4938351;29;20035;-73
2023/10/27 07:46:37;;;;;;;8.13;5.30;;;16.00;85.00;;;;;;4938359;29;20023;-72
2023/10/27 07:49:04;;;;;;;9.25;5.30;;;15.90;85.00;;;;;;4937365;29;20035;-73
2023/10/27 07:51:30;;;;;;;9.27;5.20;;;15.90;85.00;;;;;;4922522;29;20457;-72
2023/10/27 07:53:57;;;;;;;9.68;5.45;;;16.00;85.10;;;;;;4919764;29;20028;-73
2023/10/27 07:56:25;;;;;;;8.45;5.55;;;16.00;85.10;;;;;;4919226;29;20031;-73
2023/10/27 07:58:52;;;;;;;8.77;5.70;;;16.00;85.10;;;;;;4919230;29;20099;-72
2023/10/27 08:01:18;;;;;;;10.07;6.10;;;16.10;85.20;;;;;;4919205;29;20107;-72
2023/10/27 08:03:46;;;;;;;9.80;5.63;;;16.20;85.10;;;;;;4919194;29;20059;-72
2023/10/27 08:06:13;;;;;;;9.65;5.90;;;16.20;85.10;;;;;;4919373;29;20111;-73
2023/10/27 08:08:41;;;;;;;9.82;5.97;;;16.30;85.20;;;;;;4919186;29;20028;-71
2023/10/27 08:13:47;;;;;;;11.32;6.03;;;16.40;85.20;;;;;;5110623;23;20074;-73
2023/10/27 08:16:13;;;;;;;11.63;7.32;;;16.50;85.30;;;;;;4919625;29;20033;-70
2023/10/27 08:18:39;;;;;;;9.75;6.63;;;16.60;85.40;;;;;;4919025;29;20464;-73
2023/10/27 08:21:06;;;;;;;10.88;7.22;;;16.70;85.40;;;;;;4919544;29;20020;-71
2023/10/27 08:23:32;;;;;;;11.05;7.20;;;16.80;85.30;;;;;;4905302;29;20060;-71
2023/10/27 08:25:58;;;;;;;12.45;8.43;;;16.90;85.30;;;;;;4900087;29;20525;-72
2023/10/27 08:28:24;;;;;;;14.45;9.00;;;16.90;85.30;;;;;;4914897;29;20071;-72
2023/10/27 08:30:52;;;;;;;15.13;9.20;;;17.00;85.20;;;;;;4898963;29;20365;-70
2023/10/27 08:33:21;;;;;;;13.93;9.15;;;17.10;85.00;;;;;;4899917;29;20045;-71
2023/10/27 08:35:49;;;;;;;13.68;9.30;;;17.20;84.90;;;;;;4900019;29;20039;-70
2023/10/27 08:38:18;;;;;;;12.75;8.35;;;17.20;84.90;;;;;;4902304;29;20446;-72
2023/10/27 08:40:45;;;;;;;11.52;7.57;;;17.20;84.80;;;;;;4904146;29;20121;-72
2023/10/27 08:43:15;;;;;;;13.38;9.07;;;17.30;84.80;;;;;;4903725;29;20457;-71
2023/10/27 08:45:43;;;;;;;12.30;8.23;;;17.40;84.80;;;;;;5190756;23;20086;-72
2023/10/27 08:48:09;;;;;;;13.95;9.50;;;17.50;84.90;;;;;;4941697;29;20031;-71
2023/10/27 08:50:35;;;;;;;12.60;8.43;;;17.50;84.90;;;;;;4941349;29;20426;-71
2023/10/27 08:53:04;;;;;;;15.38;9.82;;;17.70;84.90;;;;;;4941350;29;20020;-71
2023/10/27 08:55:34;;;;;;;12.02;8.05;;;17.80;84.70;;;;;;4931302;29;20502;-71
2023/10/27 08:58:05;;;;;;;14.27;10.02;;;17.90;84.40;;;;;;4922715;29;20024;-70
2023/10/27 09:00:33;;;;;;;13.55;9.15;;;17.90;84.10;;;;;;4922196;29;20428;-71
2023/10/27 09:03:41;;;;;;;12.63;8.82;;;18.00;84.10;;;;;;4922133;29;20103;-72
2023/10/27 09:06:07;;;;;;;15.05;9.48;;;18.00;84.00;;;;;;4922004;29;20055;-72
2023/10/27 09:08:36;;;;;;;13.60;9.07;;;18.20;84.00;;;;;;4922612;29;20103;-70
2023/10/27 09:11:02;;;;;;;14.10;9.65;;;18.30;83.80;;;;;;4922141;29;20040;-71
2023/10/27 09:13:37;;;;;;;12.90;8.52;;;18.40;83.70;;;;;;4922530;29;20044;-72
2023/10/27 09:16:03;;;;;;;13.65;8.85;;;18.50;83.20;;;;;;4921244;29;20323;-71
2023/10/27 09:18:44;;;;;;;13.18;8.77;;;18.60;83.40;;;;;;4922162;29;20027;-71
2023/10/27 09:21:10;;;;;;;13.90;9.65;;;18.80;83.10;;;;;;4920913;29;20036;-72
2023/10/27 09:23:45;;;;;;;14.35;10.85;;;18.90;82.80;;;;;;4921889;29;20024;-72
2023/10/27 09:26:11;;;;;;;13.73;9.43;;;19.00;82.40;;;;;;4921763;29;20032;-70
2023/10/27 09:28:38;;;;;;;11.93;8.38;;;19.00;82.60;;;;;;4922020;29;20035;-72
2023/10/27 09:31:03;;;;;;;15.25;10.63;;;19.20;82.50;;;;;;4921567;29;20075;-72
2023/10/27 09:33:29;;;;;;;10.30;7.25;;;19.30;82.30;;;;;;4921589;29;20020;-70
2023/10/27 09:35:58;;;;;;;11.73;7.47;;;19.30;81.60;;;;;;4921765;29;20024;-70
2023/10/27 09:38:24;;;;;;;10.55;7.60;;;19.40;81.40;;;;;;4920536;29;20025;-71
2023/10/27 09:40:53;;;;;;;12.02;7.30;;;19.50;81.60;;;;;;4921506;29;20049;-72
2023/10/27 09:43:25;;;;;;;8.55;5.93;;;19.60;81.50;;;;;;4921372;29;20043;-72
2023/10/27 09:45:57;;;;;;;10.65;6.45;;;19.60;81.10;;;;;;4920753;29;20491;-71
2023/10/27 09:48:29;;;;;;;9.35;6.70;;;19.60;80.90;;;;;;4904480;29;20032;-70
2023/10/27 09:51:02;;;;;;;8.43;5.90;;;19.60;81.00;;;;;;4919914;29;20024;-72
2023/10/27 09:53:28;;;;;;;;;;;19.70;80.90;;;;;;4921892;29;20048;-71
2023/10/27 09:55:58;;;;;;;10.05;6.30;;;19.70;79.40;;;;;;4921181;29;19907;-72
2023/10/27 10:01:01;;;;;;;8.57;5.97;;;19.70;80.50;;;;;;5338395;23;20105;-73
2023/10/27 10:06:21;;;;;;;9.38;6.40;;;19.70;80.00;;;;;;5194350;23;20059;-73
2023/10/27 10:09:09;;;;;;;11.15;7.25;;;19.70;80.00;;;;;;4940018;29;20043;-73
2023/10/27 10:11:54;;;;;;;17.85;10.23;;;19.70;80.20;;;;;;4940084;29;20051;-71
2023/10/27 10:14:43;;;;;;;10.98;7.68;;;19.70;79.10;;;;;;4940397;29;20030;-72
2023/10/27 10:17:09;;;;;;;10.20;6.85;;;19.70;79.30;;;;;;4920830;29;20032;-73
2023/10/27 10:19:50;;;;;;;10.65;7.15;;;19.70;79.50;;;;;;4919837;29;20110;-72
2023/10/27 10:22:39;;;;;;;10.23;7.00;;;19.60;79.00;;;;;;4920741;29;20028;-73
2023/10/27 10:25:23;;;;;;;9.20;6.57;;;19.60;78.80;;;;;;4915362;29;20074;-73
2023/10/27 10:28:07;;;;;;;;;;;19.60;79.40;;;;;;4921078;29;20060;-72
2023/10/27 10:30:45;;;;;;;8.52;5.43;;;19.60;78.30;;;;;;4921050;29;19911;-71
2023/10/27 10:33:14;;;;;;;30.50;13.43;;;19.60;79.50;;;;;;4921078;29;20024;-73
2023/10/27 10:35:41;;;;;;;30.02;15.00;;;19.70;79.10;;;;;;4920708;29;20115;-74
2023/10/27 10:41:00;;;;;;;14.25;8.60;;;19.80;78.70;;;;;;4939931;29;20028;-73
2023/10/27 10:43:40;;;;;;;14.10;8.35;;;19.70;78.80;;;;;;4939317;29;20091;-73
2023/10/27 10:46:11;;;;;;;13.10;7.68;;;19.80;78.20;;;;;;4939593;29;20035;-74
2023/10/27 10:48:42;;;;;;;13.57;8.38;;;19.70;78.70;;;;;;4923068;29;20032;-73
2023/10/27 10:51:12;;;;;;;17.60;10.27;;;19.80;78.40;;;;;;4920632;29;20088;-73
2023/10/27 10:53:38;;;;;;;36.53;14.02;;;19.80;78.00;;;;;;4920635;29;20071;-73
2023/10/27 10:56:05;;;;;;;31.63;15.43;;;19.80;78.50;;;;;;4920401;29;20107;-73
2023/10/27 10:58:34;;;;;;;32.70;15.88;;;19.90;77.30;;;;;;4920545;29;20032;-74
2023/10/27 11:01:03;;;;;;;30.00;14.02;;;19.90;77.30;;;;;;4919953;29;20058;-73
2023/10/27 11:03:33;;;;;;;31.23;16.05;;;19.90;77.80;;;;;;4919984;29;20027;-73
2023/10/27 11:06:02;;;;;;;19.35;12.60;;;20.00;78.00;;;;;;4919909;29;20457;-73
2023/10/27 11:08:34;;;;;;;17.35;11.23;;;20.00;77.70;;;;;;4919969;29;20032;-74
2023/10/27 11:11:14;;;;;;;17.40;10.55;;;20.00;76.90;;;;;;4920421;29;20479;-72
2023/10/27 11:13:51;;;;;;;18.95;11.25;;;20.00;76.60;;;;;;4920054;29;20035;-72
2023/10/27 11:16:18;;;;;;;17.55;11.05;;;20.00;77.00;;;;;;4919294;29;20052;-72
2023/10/27 11:18:45;;;;;;;17.10;11.35;;;19.90;76.90;;;;;;4918784;29;20032;-71
2023/10/27 11:21:18;;;;;;;18.30;11.23;;;19.90;76.50;;;;;;4919940;29;20103;-72
2023/10/27 11:23:48;;;;;;;16.23;10.55;;;19.90;76.90;;;;;;4920257;29;20437;-72
2023/10/27 11:26:17;;;;;;;18.65;10.88;;;19.90;76.80;;;;;;4920186;29;20032;-70
2023/10/27 11:28:45;;;;;;;17.55;10.50;;;19.90;76.60;;;;;;4918976;29;20115;-70
2023/10/27 11:31:23;;;;;;;17.40;10.85;;;19.90;76.90;;;;;;4920032;29;20043;-70
2023/10/27 11:33:58;;;;;;;17.00;11.18;;;19.90;77.00;;;;;;4919826;29;20029;-71
2023/10/27 11:36:29;;;;;;;18.10;10.73;;;19.90;76.60;;;;;;4918480;29;20361;-72
2023/10/27 11:39:10;;;;;;;16.20;10.32;;;19.90;76.90;;;;;;4919197;29;20048;-71
2023/10/27 11:41:37;;;;;;;15.82;9.75;;;19.90;77.10;;;;;;4920039;29;20035;-71
2023/10/27 11:44:04;;;;;;;16.80;10.15;;;20.00;77.00;;;;;;4919939;29;20032;-69
2023/10/27 11:46:30;;;;;;;14.98;9.98;;;20.10;77.00;;;;;;4919905;29;20035;-69
2023/10/27 11:48:56;;;;;;;14.88;9.23;;;20.10;76.60;;;;;;4919274;29;20079;-70
2023/10/27 11:51:22;;;;;;;15.75;8.93;;;20.10;76.90;;;;;;4919510;29;20035;-65
2023/10/27 11:53:48;;;;;;;17.10;9.40;;;20.30;76.50;;;;;;4919819;29;20107;-65
2023/10/27 11:56:14;;;;;;;14.30;8.38;;;20.30;76.40;;;;;;4919826;29;20051;-65
2023/10/27 11:58:43;;;;;;;13.20;8.38;;;20.40;76.20;;;;;;4918528;29;20031;-66
2023/10/27 12:01:09;;;;;;;15.13;9.38;;;20.40;76.10;;;;;;4919156;29;20107;-65
2023/10/27 12:03:35;;;;;;;16.20;9.10;;;20.40;76.00;;;;;;4919474;29;20061;-65
2023/10/27 12:06:02;;;;;;;13.75;8.52;;;20.40;75.80;;;;;;4919519;29;20341;-66
2023/10/27 12:08:28;;;;;;;30.55;10.60;;;20.50;75.50;;;;;;4919025;29;20028;-66
2023/10/27 12:10:54;;;;;;;18.77;9.27;;;20.50;75.10;;;;;;4919052;29;20126;-67
2023/10/27 12:13:21;;;;;;;16.48;9.68;;;20.50;75.40;;;;;;4921414;29;20024;-67
2023/10/27 12:15:48;;;;;;;13.63;8.77;;;20.40;75.40;;;;;;4922168;29;20024;-67
2023/10/27 12:18:33;;;;;;;14.68;8.80;;;20.50;75.90;;;;;;4922823;29;20111;-68
2023/10/27 12:21:01;;;;;;;14.10;8.60;;;20.50;75.40;;;;;;4923435;29;20123;-68
2023/10/27 12:23:32;;;;;;;14.50;9.20;;;20.60;75.20;;;;;;4922835;29;20062;-68
2023/10/27 12:26:00;;;;;;;13.73;8.35;;;20.60;75.00;;;;;;4923111;29;20055;-68
2023/10/27 12:28:29;;;;;;;13.50;7.88;;;20.70;74.70;;;;;;4922988;29;20056;-68
2023/10/27 12:30:57;;;;;;;15.07;8.40;;;20.70;74.80;;;;;;4922160;29;20111;-68
2023/10/27 12:33:30;;;;;;;13.93;8.02;;;20.80;74.30;;;;;;4922135;29;20052;-68
2023/10/27 12:35:56;;;;;;;12.88;7.25;;;20.80;74.70;;;;;;4922676;29;20032;-68
2023/10/27 12:38:26;;;;;;;12.23;7.50;;;20.80;74.00;;;;;;4921812;29;20048;-68
2023/10/27 12:40:55;;;;;;;12.93;7.60;;;20.90;74.40;;;;;;4922541;29;20434;-68
2023/10/27 12:43:29;;;;;;;10.82;6.70;;;20.90;74.20;;;;;;4921623;29;20418;-68
2023/10/27 12:45:55;;;;;;;12.23;6.60;;;20.90;74.40;;;;;;4922469;29;20039;-68
2023/10/27 12:48:21;;;;;;;10.57;6.47;;;21.00;74.10;;;;;;4922390;29;20024;-68
2023/10/27 12:50:47;;;;;;;9.77;6.45;;;21.00;73.50;;;;;;4922373;29;20135;-68
2023/10/27 12:53:13;;;;;;;9.07;5.80;;;21.10;73.70;;;;;;4922883;29;20050;-68
2023/10/27 12:55:40;;;;;;;11.43;7.03;;;21.10;73.50;;;;;;4905669;29;20026;-68
2023/10/27 12:58:12;;;;;;;10.57;6.65;;;21.10;73.90;;;;;;4921582;29;20095;-68
2023/10/27 13:00:39;;;;;;;10.45;6.35;;;21.10;73.60;;;;;;4922103;29;20036;-68